Time;durP1;ratioP1;P1;durP2;ratioP2;P2;SDS_P1;SDS_P2;PMS_P1;PMS_P2;Temp;Humidity;BMP_temperature;BMP_pressure;BME280_temperature;BME280_humidity;BME280_pressure;Samples;Min_cycle;Max_cycle;Signal;HPM_P1;HPM_P2
2021/11/26 00:00:19;;;;;;;43.50;22.42;;;6.10;99.90;;;;;;4166343;28;20038;-66
2021/11/26 00:02:23;;;;;;;47.90;22.77;;;6.10;99.90;;;;;;4167433;28;20021;-66
2021/11/26 00:04:25;;;;;;;51.13;23.52;;;6.10;99.90;;;;;;4167392;28;20108;-66
2021/11/26 00:06:26;;;;;;;49.03;24.25;;;6.20;99.90;;;;;;4166569;28;20041;-66
2021/11/26 00:08:27;;;;;;;58.47;24.08;;;6.10;99.90;;;;;;4167050;28;20034;-66
2021/11/26 00:10:27;;;;;;;55.13;25.10;;;6.20;99.90;;;;;;4166432;28;20549;-66
2021/11/26 00:12:28;;;;;;;51.20;25.15;;;6.20;99.90;;;;;;4166742;28;20039;-66
2021/11/26 00:14:32;;;;;;;53.88;23.90;;;6.10;99.90;;;;;;4166659;28;20033;-66
2021/11/26 00:16:37;;;;;;;55.63;25.40;;;6.20;99.90;;;;;;4166369;28;20075;-66
2021/11/26 00:18:42;;;;;;;54.65;26.27;;;6.10;99.90;;;;;;4166952;28;20033;-66
2021/11/26 00:20:44;;;;;;;60.25;26.73;;;6.10;99.90;;;;;;4166327;28;20115;-65
2021/11/26 00:22:45;;;;;;;67.50;29.15;;;6.20;99.90;;;;;;4166631;28;20061;-65
2021/11/26 00:24:45;;;;;;;65.78;29.17;;;6.10;99.90;;;;;;4166857;28;20380;-65
2021/11/26 00:26:48;;;;;;;64.47;28.55;;;6.10;99.90;;;;;;4165890;28;20048;-66
2021/11/26 00:28:48;;;;;;;67.72;29.17;;;6.10;99.90;;;;;;4166784;28;20476;-66
2021/11/26 00:30:51;;;;;;;61.20;28.50;;;6.20;99.90;;;;;;4166014;28;20040;-65
2021/11/26 00:32:51;;;;;;;67.30;30.17;;;6.10;99.90;;;;;;4166874;28;20506;-66
2021/11/26 00:34:52;;;;;;;72.70;31.63;;;6.10;99.90;;;;;;4166830;28;20037;-66
2021/11/26 00:36:53;;;;;;;71.43;29.70;;;6.10;99.90;;;;;;4165999;28;20034;-66
2021/11/26 00:38:53;;;;;;;76.35;33.95;;;6.10;99.90;;;;;;4166639;28;20037;-65
2021/11/26 00:40:54;;;;;;;72.65;31.92;;;6.10;99.90;;;;;;4165922;28;20040;-66
2021/11/26 00:42:54;;;;;;;80.57;33.85;;;6.00;99.90;;;;;;4166602;28;20029;-66
2021/11/26 00:44:55;;;;;;;67.60;31.02;;;6.00;99.90;;;;;;4166650;28;20029;-66
2021/11/26 00:46:56;;;;;;;69.47;31.02;;;5.90;99.90;;;;;;4165847;28;20036;-66
2021/11/26 00:48:57;;;;;;;70.68;30.83;;;6.00;99.90;;;;;;4166266;28;20037;-66
2021/11/26 00:50:57;;;;;;;66.30;30.52;;;6.00;99.90;;;;;;4165664;28;20480;-65
2021/11/26 00:52:58;;;;;;;60.35;30.17;;;6.00;99.90;;;;;;4166359;28;20050;-66
2021/11/26 00:54:59;;;;;;;57.80;28.23;;;6.00;99.90;;;;;;4166354;28;20388;-66
2021/11/26 00:57:01;;;;;;;63.45;28.20;;;6.10;99.90;;;;;;4165380;28;20030;-66
2021/11/26 00:59:02;;;;;;;64.22;29.75;;;6.10;99.90;;;;;;4166115;28;20495;-66
2021/11/26 01:01:03;;;;;;;66.68;32.28;;;6.10;99.90;;;;;;4165646;28;20025;-66
2021/11/26 01:03:05;;;;;;;64.20;30.38;;;6.00;99.90;;;;;;4166253;28;20136;-65
2021/11/26 01:05:07;;;;;;;58.92;27.90;;;6.00;99.90;;;;;;4166030;28;20068;-66
2021/11/26 01:07:08;;;;;;;65.55;29.42;;;6.00;99.90;;;;;;4166186;28;20071;-66
2021/11/26 01:09:09;;;;;;;63.72;29.17;;;5.90;99.90;;;;;;4165959;28;20042;-66
2021/11/26 01:11:09;;;;;;;67.82;29.75;;;6.00;99.90;;;;;;4165684;28;20533;-66
2021/11/26 01:13:10;;;;;;;53.25;25.90;;;5.90;99.90;;;;;;4166205;28;20029;-66
2021/11/26 01:15:14;;;;;;;50.72;24.48;;;6.00;99.90;;;;;;4165613;28;20116;-68
2021/11/26 01:17:15;;;;;;;55.90;25.98;;;5.90;99.90;;;;;;4166405;28;20079;-66
2021/11/26 01:19:15;;;;;;;61.40;26.75;;;6.00;99.90;;;;;;4165835;28;20037;-66
2021/11/26 01:21:16;;;;;;;56.47;25.58;;;6.00;99.90;;;;;;4165130;28;20026;-66
2021/11/26 01:23:17;;;;;;;50.70;24.15;;;6.00;99.90;;;;;;4165842;28;20025;-66
2021/11/26 01:25:19;;;;;;;53.88;23.13;;;5.90;99.90;;;;;;4165117;28;20029;-66
2021/11/26 01:27:19;;;;;;;56.97;26.23;;;5.90;99.90;;;;;;4165901;28;20379;-66
2021/11/26 01:29:20;;;;;;;49.85;23.88;;;5.90;99.90;;;;;;4165509;28;20052;-66
2021/11/26 01:31:21;;;;;;;47.15;22.77;;;5.90;99.90;;;;;;4165020;28;20107;-66
2021/11/26 01:33:22;;;;;;;52.55;22.95;;;5.90;99.90;;;;;;4166026;28;20037;-66
2021/11/26 01:35:23;;;;;;;50.38;23.77;;;5.90;99.90;;;;;;4165187;28;20033;-66
2021/11/26 01:37:23;;;;;;;44.85;21.80;;;5.90;99.90;;;;;;4165639;28;20170;-66
2021/11/26 01:39:24;;;;;;;42.17;19.92;;;5.90;99.90;;;;;;4165808;28;20045;-66
2021/11/26 01:41:25;;;;;;;46.85;20.92;;;5.90;99.90;;;;;;4164962;28;20381;-66
2021/11/26 01:43:26;;;;;;;48.78;21.80;;;5.90;99.90;;;;;;4165929;28;20376;-66
2021/11/26 01:45:27;;;;;;;41.50;21.48;;;5.90;99.90;;;;;;4164793;28;20042;-66
2021/11/26 01:47:28;;;;;;;36.53;19.65;;;5.90;99.90;;;;;;4165479;28;20108;-66
2021/11/26 01:49:28;;;;;;;37.85;18.90;;;5.90;99.90;;;;;;4165641;28;20087;-66
2021/11/26 01:51:29;;;;;;;45.58;21.13;;;5.90;99.90;;;;;;4164850;28;20053;-66
2021/11/26 01:53:30;;;;;;;42.13;19.95;;;5.90;99.90;;;;;;4165373;28;20468;-66
2021/11/26 01:55:32;;;;;;;39.58;19.48;;;5.90;99.90;;;;;;4164787;28;20104;-66
2021/11/26 01:57:34;;;;;;;36.17;17.80;;;5.80;99.90;;;;;;4165757;28;20056;-66
2021/11/26 01:59:35;;;;;;;39.35;18.50;;;5.90;99.90;;;;;;4165502;28;20030;-65
2021/11/26 02:01:36;;;;;;;43.25;18.85;;;5.90;99.90;;;;;;4164678;28;20399;-66
2021/11/26 02:03:37;;;;;;;41.25;18.77;;;5.90;99.90;;;;;;4165467;28;20388;-66
2021/11/26 02:05:37;;;;;;;34.55;17.52;;;5.90;99.90;;;;;;4164553;28;20044;-66
2021/11/26 02:07:38;;;;;;;36.42;17.70;;;5.90;99.90;;;;;;4165347;28;20034;-66
2021/11/26 02:09:40;;;;;;;32.95;16.27;;;5.90;99.90;;;;;;4165497;28;20492;-66
2021/11/26 02:11:40;;;;;;;34.50;17.10;;;5.90;99.90;;;;;;4164481;28;20061;-66
2021/11/26 02:13:42;;;;;;;39.60;18.50;;;5.80;99.90;;;;;;4165071;28;20042;-66
2021/11/26 02:15:44;;;;;;;31.83;17.57;;;5.80;99.90;;;;;;4164672;28;20037;-66
2021/11/26 02:17:45;;;;;;;33.55;17.05;;;5.80;99.90;;;;;;4164833;28;20033;-66
2021/11/26 02:19:46;;;;;;;38.45;17.80;;;5.80;99.90;;;;;;4165217;28;20068;-66
2021/11/26 02:21:47;;;;;;;32.67;16.95;;;5.70;99.90;;;;;;4164386;28;20056;-66
2021/11/26 02:23:48;;;;;;;32.47;16.55;;;5.80;99.90;;;;;;4164956;28;20450;-66
2021/11/26 02:25:49;;;;;;;32.22;16.00;;;5.80;99.90;;;;;;4164609;28;20495;-66
2021/11/26 02:27:55;;;;;;;33.13;16.65;;;5.80;99.90;;;;;;4164883;28;20036;-66
2021/11/26 02:29:56;;;;;;;32.83;16.52;;;5.80;99.90;;;;;;4165094;28;20033;-66
2021/11/26 02:31:56;;;;;;;34.95;17.48;;;5.80;99.90;;;;;;4164181;28;20040;-66
2021/11/26 02:33:57;;;;;;;34.85;17.20;;;5.70;99.90;;;;;;4164836;28;20044;-66
2021/11/26 02:35:58;;;;;;;37.58;16.50;;;5.80;99.90;;;;;;4163955;28;20032;-66
2021/11/26 02:38:00;;;;;;;37.70;17.48;;;5.70;99.90;;;;;;4165255;28;20061;-66
2021/11/26 02:40:00;;;;;;;30.30;16.27;;;5.70;99.90;;;;;;4164817;28;20117;-66
2021/11/26 02:42:01;;;;;;;36.30;16.20;;;5.70;99.90;;;;;;4164108;28;20392;-65
2021/11/26 02:44:02;;;;;;;35.22;16.02;;;5.70;99.90;;;;;;4164923;28;20033;-65
2021/11/26 02:46:02;;;;;;;33.38;16.98;;;5.70;99.90;;;;;;4164535;28;20036;-66
2021/11/26 02:48:03;;;;;;;31.83;16.60;;;5.70;99.90;;;;;;4164864;28;20037;-66
2021/11/26 02:50:07;;;;;;;33.63;15.98;;;5.70;99.90;;;;;;4164651;28;20120;-66
2021/11/26 02:52:07;;;;;;;33.13;15.70;;;5.70;99.90;;;;;;4164904;28;20488;-66
2021/11/26 02:54:08;;;;;;;30.95;16.50;;;5.70;99.90;;;;;;4164780;28;20113;-66
2021/11/26 02:56:08;;;;;;;29.42;15.43;;;5.70;99.90;;;;;;4164078;28;20095;-66
2021/11/26 02:58:10;;;;;;;28.60;15.05;;;5.70;99.90;;;;;;4164564;28;20056;-66
2021/11/26 03:00:13;;;;;;;30.77;15.20;;;5.70;99.90;;;;;;4163978;28;20037;-68
2021/11/26 03:02:14;;;;;;;36.40;17.08;;;5.70;99.90;;;;;;4164802;28;20456;-66
2021/11/26 03:04:15;;;;;;;29.10;15.68;;;5.70;99.90;;;;;;4164702;28;20061;-66
2021/11/26 03:06:16;;;;;;;32.00;15.10;;;5.70;99.90;;;;;;4164165;28;20079;-66
2021/11/26 03:08:16;;;;;;;30.95;15.13;;;5.70;99.90;;;;;;4164618;28;20065;-66
2021/11/26 03:10:20;;;;;;;30.70;15.70;;;5.70;99.90;;;;;;4163746;28;20080;-66
2021/11/26 03:12:21;;;;;;;30.40;15.60;;;5.60;99.90;;;;;;4164887;28;20034;-66
2021/11/26 03:14:22;;;;;;;28.73;14.93;;;5.60;99.90;;;;;;4164774;28;20026;-66
2021/11/26 03:16:23;;;;;;;32.50;15.38;;;5.70;99.90;;;;;;4164109;28;20029;-66
2021/11/26 03:18:26;;;;;;;28.90;14.80;;;5.60;99.90;;;;;;4164599;28;20072;-66
2021/11/26 03:20:28;;;;;;;28.15;13.73;;;5.60;99.90;;;;;;4164171;28;21081;-66
2021/11/26 03:22:28;;;;;;;25.60;13.23;;;5.60;99.90;;;;;;4164644;28;20111;-66
2021/11/26 03:24:29;;;;;;;23.35;12.73;;;5.60;99.90;;;;;;4164873;28;20037;-66
2021/11/26 03:26:30;;;;;;;31.13;14.10;;;5.60;99.90;;;;;;4164733;28;20029;-66
2021/11/26 03:28:30;;;;;;;21.90;11.85;;;5.60;99.90;;;;;;4165629;28;20088;-66
2021/11/26 03:30:31;;;;;;;22.27;12.55;;;5.60;99.90;;;;;;4164919;28;20483;-65
2021/11/26 03:32:32;;;;;;;23.40;11.98;;;5.60;99.90;;;;;;4166885;28;20531;-65
2021/11/26 03:34:32;;;;;;;21.33;11.85;;;5.60;99.90;;;;;;4165886;28;20108;-66
2021/11/26 03:36:33;;;;;;;19.98;10.77;;;5.60;99.90;;;;;;4163898;28;20032;-66
2021/11/26 03:38:34;;;;;;;20.13;10.93;;;5.60;99.90;;;;;;4164542;28;20513;-66
2021/11/26 03:40:35;;;;;;;19.60;9.85;;;5.60;99.90;;;;;;4163903;28;20060;-66
2021/11/26 03:42:36;;;;;;;22.10;11.18;;;5.60;99.90;;;;;;4164463;28;20033;-66
2021/11/26 03:44:37;;;;;;;19.48;11.10;;;5.60;99.90;;;;;;4164313;28;20087;-66
2021/11/26 03:46:38;;;;;;;22.75;10.88;;;5.60;99.90;;;;;;4163967;28;20029;-66
2021/11/26 03:48:38;;;;;;;18.10;9.98;;;5.60;99.90;;;;;;4165785;28;20083;-66
2021/11/26 03:50:39;;;;;;;22.90;10.48;;;5.60;99.90;;;;;;4165038;28;20050;-66
2021/11/26 03:52:40;;;;;;;18.92;9.88;;;5.70;99.90;;;;;;4165985;28;20029;-66
2021/11/26 03:54:42;;;;;;;18.85;9.48;;;5.70;99.90;;;;;;4167398;28;20076;-66
2021/11/26 03:56:43;;;;;;;17.20;9.70;;;5.70;99.90;;;;;;4166596;28;20026;-66
2021/11/26 03:58:43;;;;;;;18.48;9.52;;;5.70;99.90;;;;;;4167127;28;20502;-66
2021/11/26 04:00:44;;;;;;;16.40;9.35;;;5.70;99.90;;;;;;4166663;28;20119;-66
2021/11/26 04:02:45;;;;;;;16.63;9.48;;;5.70;99.90;;;;;;4167351;28;20034;-66
2021/11/26 04:04:46;;;;;;;23.88;9.70;;;5.70;99.90;;;;;;4167312;28;20056;-66
2021/11/26 04:06:47;;;;;;;12.88;8.63;;;5.70;99.90;;;;;;4166401;28;20029;-66
2021/11/26 04:08:47;;;;;;;18.25;8.90;;;5.80;99.90;;;;;;4166799;28;20033;-66
2021/11/26 04:10:48;;;;;;;16.02;8.23;;;5.70;99.90;;;;;;4166315;28;20037;-66
2021/11/26 04:12:50;;;;;;;14.43;7.97;;;5.70;99.90;;;;;;4167355;28;20368;-66
2021/11/26 04:14:54;;;;;;;14.75;8.48;;;5.70;99.90;;;;;;4167164;28;20475;-66
2021/11/26 04:16:55;;;;;;;16.77;7.85;;;5.70;99.90;;;;;;4165322;28;20041;-66
2021/11/26 04:18:55;;;;;;;17.23;8.38;;;5.70;99.90;;;;;;4167043;28;20033;-66
2021/11/26 04:20:56;;;;;;;15.77;8.20;;;5.70;99.90;;;;;;4166298;28;20092;-66
2021/11/26 04:22:57;;;;;;;16.15;7.70;;;5.70;99.90;;;;;;4167241;28;20037;-66
2021/11/26 04:24:58;;;;;;;16.98;7.93;;;5.70;99.90;;;;;;4167071;28;20084;-66
2021/11/26 04:26:59;;;;;;;14.27;7.50;;;5.70;99.90;;;;;;4166050;28;20033;-66
2021/11/26 04:28:59;;;;;;;16.70;7.65;;;5.80;99.90;;;;;;4166955;28;20053;-66
2021/11/26 04:31:01;;;;;;;12.98;7.38;;;5.80;99.90;;;;;;4166275;28;20513;-66
2021/11/26 04:33:02;;;;;;;14.45;7.18;;;5.80;99.90;;;;;;4167239;28;20468;-66
2021/11/26 04:35:05;;;;;;;12.02;7.07;;;5.80;99.90;;;;;;4166603;28;20048;-66
2021/11/26 04:37:06;;;;;;;;;;;5.80;99.90;;;;;;4165873;28;20679;-66
2021/11/26 04:39:06;;;;;;;13.63;7.07;;;5.80;99.90;;;;;;4166840;28;19929;-66
2021/11/26 04:41:07;;;;;;;12.00;7.30;;;5.80;99.90;;;;;;4164804;28;20091;-66
2021/11/26 04:43:08;;;;;;;14.63;7.55;;;5.80;99.90;;;;;;4166709;28;20396;-66
2021/11/26 04:45:12;;;;;;;15.27;7.90;;;5.80;99.90;;;;;;4166140;28;20030;-67
2021/11/26 04:47:12;;;;;;;10.98;7.00;;;5.80;99.90;;;;;;4166945;28;20102;-66
2021/11/26 04:49:13;;;;;;;15.93;6.97;;;5.80;99.90;;;;;;4166882;28;20551;-66
2021/11/26 04:51:13;;;;;;;12.77;7.90;;;5.80;99.90;;;;;;4166008;28;20515;-66
2021/11/26 04:53:15;;;;;;;10.35;6.78;;;5.80;99.90;;;;;;4166618;28;20044;-66
2021/11/26 04:55:17;;;;;;;12.30;7.28;;;5.80;99.90;;;;;;4165851;28;20025;-66
2021/11/26 04:57:18;;;;;;;13.70;7.50;;;5.80;99.90;;;;;;4166661;28;20506;-66
2021/11/26 04:59:18;;;;;;;10.70;7.20;;;5.80;99.90;;;;;;4166180;28;20025;-66
2021/11/26 05:01:19;;;;;;;13.50;7.88;;;5.80;99.90;;;;;;4165339;28;20030;-66
2021/11/26 05:03:19;;;;;;;11.35;6.45;;;5.80;99.90;;;;;;4166109;28;20382;-66
2021/11/26 05:05:20;;;;;;;12.20;7.65;;;5.80;99.90;;;;;;4165674;28;20044;-66
2021/11/26 05:07:22;;;;;;;13.75;7.82;;;5.80;99.90;;;;;;4166535;28;20032;-66
2021/11/26 05:09:23;;;;;;;15.13;7.70;;;5.80;99.90;;;;;;4166424;28;20034;-66
2021/11/26 05:11:24;;;;;;;13.60;7.97;;;5.80;99.90;;;;;;4165967;28;20044;-66
2021/11/26 05:13:29;;;;;;;12.30;7.18;;;5.80;99.90;;;;;;4166376;28;20107;-66
2021/11/26 05:15:30;;;;;;;16.98;7.88;;;5.80;99.90;;;;;;4165441;28;20038;-66
2021/11/26 05:17:31;;;;;;;17.93;8.33;;;5.80;99.90;;;;;;4166642;28;20037;-66
2021/11/26 05:19:32;;;;;;;12.60;7.57;;;5.80;99.90;;;;;;4165886;28;20287;-66
2021/11/26 05:21:32;;;;;;;15.70;8.10;;;5.80;99.90;;;;;;4165409;28;20025;-66
2021/11/26 05:23:33;;;;;;;14.73;9.07;;;5.80;99.90;;;;;;4166231;28;20048;-66
2021/11/26 05:25:33;;;;;;;17.88;8.57;;;5.80;99.90;;;;;;4165403;28;20038;-66
2021/11/26 05:27:34;;;;;;;17.13;8.40;;;5.80;99.90;;;;;;4166053;28;20044;-66
2021/11/26 05:29:35;;;;;;;13.80;8.32;;;5.80;99.90;;;;;;4164541;28;20038;-66
2021/11/26 05:31:36;;;;;;;21.58;9.07;;;5.80;99.90;;;;;;4165713;28;20115;-66
2021/11/26 05:33:37;;;;;;;19.20;9.50;;;5.80;99.90;;;;;;4166372;28;20037;-66
2021/11/26 05:35:37;;;;;;;12.48;8.02;;;5.80;99.90;;;;;;4165632;28;20082;-66
2021/11/26 05:37:39;;;;;;;17.33;9.23;;;5.80;99.90;;;;;;4166019;28;20041;-66
2021/11/26 05:39:40;;;;;;;16.15;8.32;;;5.80;99.90;;;;;;4165980;28;20478;-66
2021/11/26 05:41:41;;;;;;;12.07;8.00;;;5.80;99.90;;;;;;4165261;28;20030;-66
2021/11/26 05:43:41;;;;;;;14.25;7.72;;;5.80;99.90;;;;;;4165892;28;20030;-66
2021/11/26 05:45:42;;;;;;;13.77;8.70;;;5.80;99.90;;;;;;4165269;28;20389;-66
2021/11/26 05:47:43;;;;;;;19.52;10.50;;;5.80;99.90;;;;;;4165963;28;20108;-66
2021/11/26 05:49:44;;;;;;;16.15;9.43;;;5.90;99.90;;;;;;4165553;28;20095;-66
2021/11/26 05:51:45;;;;;;;18.00;9.60;;;5.80;99.90;;;;;;4165197;28;20057;-66
2021/11/26 05:53:46;;;;;;;16.75;9.77;;;5.80;99.90;;;;;;4165769;28;20032;-66
2021/11/26 05:55:47;;;;;;;17.05;9.85;;;5.80;99.90;;;;;;4165086;28;20034;-66
2021/11/26 05:57:48;;;;;;;15.52;8.82;;;5.80;99.90;;;;;;4165697;28;20475;-66
2021/11/26 05:59:48;;;;;;;20.58;11.05;;;5.90;99.90;;;;;;4165749;28;20095;-66
2021/11/26 06:01:49;;;;;;;15.32;10.10;;;5.80;99.90;;;;;;4165018;28;20049;-66
2021/11/26 06:03:50;;;;;;;13.77;9.20;;;5.80;99.90;;;;;;4165829;28;20490;-66
2021/11/26 06:05:51;;;;;;;17.92;9.70;;;5.90;99.90;;;;;;4164666;28;20033;-66
2021/11/26 06:07:52;;;;;;;17.63;9.63;;;5.90;99.90;;;;;;4165670;28;20482;-66
2021/11/26 06:09:53;;;;;;;14.85;8.68;;;5.90;99.90;;;;;;4165558;28;20038;-66
2021/11/26 06:11:53;;;;;;;14.05;9.23;;;5.90;99.90;;;;;;4163780;28;20041;-66
2021/11/26 06:13:54;;;;;;;16.98;10.38;;;5.90;99.90;;;;;;4165232;28;20040;-66
2021/11/26 06:15:55;;;;;;;18.88;9.85;;;5.90;99.90;;;;;;4164609;28;20033;-66
2021/11/26 06:17:56;;;;;;;20.10;11.82;;;5.90;99.90;;;;;;4165184;28;20037;-66
2021/11/26 06:19:56;;;;;;;21.25;11.35;;;5.90;99.90;;;;;;4165447;28;20384;-66
2021/11/26 06:21:57;;;;;;;23.33;11.55;;;5.90;99.90;;;;;;4164490;28;20468;-66
2021/11/26 06:23:58;;;;;;;19.83;12.50;;;5.90;99.90;;;;;;4165285;28;20036;-66
2021/11/26 06:25:59;;;;;;;22.98;13.45;;;5.90;99.90;;;;;;4164744;28;20111;-66
2021/11/26 06:27:59;;;;;;;22.90;12.85;;;5.80;99.90;;;;;;4165398;28;20034;-66
2021/11/26 06:30:00;;;;;;;23.17;13.27;;;5.80;99.90;;;;;;4166196;28;20401;-66
2021/11/26 06:32:02;;;;;;;27.17;14.48;;;5.80;99.90;;;;;;4165047;28;20054;-66
2021/11/26 06:34:03;;;;;;;24.23;14.13;;;5.80;99.90;;;;;;4166470;28;20095;-66
2021/11/26 06:36:04;;;;;;;27.65;15.38;;;5.90;99.90;;;;;;4166113;28;20114;-66
2021/11/26 06:38:05;;;;;;;25.35;15.40;;;5.90;99.90;;;;;;4166850;28;20472;-65
2021/11/26 06:40:06;;;;;;;31.17;15.82;;;5.90;99.90;;;;;;4166991;28;20029;-67
2021/11/26 06:42:07;;;;;;;28.00;16.73;;;5.90;99.90;;;;;;4165856;28;20100;-66
2021/11/26 06:44:07;;;;;;;28.90;16.40;;;5.90;99.90;;;;;;4165087;28;20041;-66
2021/11/26 06:46:08;;;;;;;26.95;16.38;;;5.90;99.90;;;;;;4164599;28;20065;-66
2021/11/26 06:48:09;;;;;;;25.20;15.63;;;5.90;99.90;;;;;;4164866;28;20026;-66
2021/11/26 06:50:11;;;;;;;25.30;16.33;;;5.90;99.90;;;;;;4164710;28;20041;-67
2021/11/26 06:52:11;;;;;;;32.30;17.98;;;5.90;99.90;;;;;;4165041;28;20076;-66
2021/11/26 06:54:12;;;;;;;27.20;16.35;;;5.90;99.90;;;;;;4165230;28;20395;-66
2021/11/26 06:56:13;;;;;;;30.73;17.50;;;5.90;99.90;;;;;;4164337;28;20030;-66
2021/11/26 06:58:14;;;;;;;27.65;16.23;;;5.90;99.90;;;;;;4165461;28;20099;-66
2021/11/26 07:00:17;;;;;;;24.42;16.42;;;5.90;99.90;;;;;;4164049;28;20116;-66
2021/11/26 07:02:18;;;;;;;26.90;16.25;;;5.90;99.90;;;;;;4164999;28;20040;-66
2021/11/26 07:04:19;;;;;;;27.98;17.33;;;5.90;99.90;;;;;;4164966;28;20029;-66
2021/11/26 07:06:19;;;;;;;29.38;16.45;;;5.90;99.90;;;;;;4164470;28;20032;-66
2021/11/26 07:08:20;;;;;;;27.65;16.40;;;5.90;99.90;;;;;;4164873;28;20036;-66
2021/11/26 07:10:21;;;;;;;30.30;16.95;;;6.00;99.90;;;;;;4164125;28;20475;-66
2021/11/26 07:12:21;;;;;;;33.00;18.17;;;5.90;99.90;;;;;;4164949;28;20084;-66
2021/11/26 07:14:22;;;;;;;25.60;16.83;;;5.90;99.90;;;;;;4164785;28;20395;-66
2021/11/26 07:16:22;;;;;;;27.38;15.93;;;6.00;99.90;;;;;;4164036;28;20025;-66
2021/11/26 07:18:23;;;;;;;29.40;16.95;;;5.90;99.90;;;;;;4164791;28;20072;-66
2021/11/26 07:20:24;;;;;;;31.75;16.50;;;6.00;99.90;;;;;;4164037;28;20061;-66
2021/11/26 07:22:24;;;;;;;23.30;14.48;;;5.90;99.90;;;;;;4166103;28;20076;-67
2021/11/26 07:24:25;;;;;;;24.55;14.63;;;5.80;99.90;;;;;;4168442;28;20056;-68
2021/11/26 07:26:26;;;;;;;24.40;14.55;;;5.90;99.90;;;;;;4167773;28;20033;-67
2021/11/26 07:28:27;;;;;;;27.50;16.55;;;5.90;99.90;;;;;;4167781;28;20388;-67
2021/11/26 07:30:27;;;;;;;24.33;14.13;;;5.90;99.90;;;;;;4167557;28;20476;-68
2021/11/26 07:32:28;;;;;;;25.23;13.40;;;5.90;99.90;;;;;;4168487;28;20061;-67
2021/11/26 07:34:29;;;;;;;23.75;12.75;;;5.90;99.90;;;;;;4168021;28;20037;-68
2021/11/26 07:36:29;;;;;;;23.17;12.25;;;5.90;99.90;;;;;;4167505;28;20057;-68
2021/11/26 07:38:30;;;;;;;23.75;12.85;;;5.90;99.90;;;;;;4167723;28;20025;-68
2021/11/26 07:40:31;;;;;;;20.77;12.18;;;5.90;99.90;;;;;;4167696;28;20476;-68
2021/11/26 07:42:31;;;;;;;23.45;11.70;;;5.90;99.90;;;;;;4166958;28;20502;-67
2021/11/26 07:44:34;;;;;;;19.77;10.30;;;5.90;99.90;;;;;;4168208;28;20029;-68
2021/11/26 07:46:35;;;;;;;22.70;11.32;;;5.90;99.90;;;;;;4166918;28;20033;-67
2021/11/26 07:48:35;;;;;;;17.70;9.15;;;5.80;99.90;;;;;;4167451;28;20472;-68
2021/11/26 07:50:36;;;;;;;19.83;9.73;;;5.80;99.90;;;;;;4167216;28;21777;-68
2021/11/26 07:52:37;;;;;;;21.95;10.52;;;5.80;99.90;;;;;;4168088;28;20045;-68
2021/11/26 07:54:38;;;;;;;19.83;9.63;;;5.80;99.90;;;;;;4168203;28;20072;-68
2021/11/26 07:56:39;;;;;;;17.10;9.23;;;5.80;99.90;;;;;;4167015;28;20025;-68
2021/11/26 07:58:40;;;;;;;19.13;9.90;;;5.80;99.90;;;;;;4168170;28;20072;-68
2021/11/26 08:00:40;;;;;;;20.33;9.50;;;5.80;99.90;;;;;;4167173;28;20036;-68
2021/11/26 08:02:41;;;;;;;16.58;9.48;;;5.80;99.90;;;;;;4167903;28;20077;-67
2021/11/26 08:04:42;;;;;;;20.55;10.60;;;5.80;99.90;;;;;;4167534;28;20034;-68
2021/11/26 08:06:46;;;;;;;23.38;11.13;;;5.80;99.90;;;;;;4167335;28;20108;-67
2021/11/26 08:08:47;;;;;;;25.63;11.75;;;5.80;99.90;;;;;;4167997;28;20029;-67
2021/11/26 08:10:48;;;;;;;22.27;11.13;;;5.80;99.90;;;;;;4167095;28;20077;-68
2021/11/26 08:12:48;;;;;;;25.13;10.95;;;5.90;99.90;;;;;;4167503;28;20490;-68
2021/11/26 08:14:51;;;;;;;22.05;11.63;;;5.80;99.90;;;;;;4167332;28;20112;-67
2021/11/26 08:16:54;;;;;;;24.33;10.98;;;5.80;99.90;;;;;;4165574;28;20029;-68
2021/11/26 08:18:55;;;;;;;22.67;10.93;;;5.80;99.90;;;;;;4167636;28;20072;-67
2021/11/26 08:20:56;;;;;;;26.73;10.68;;;5.80;99.90;;;;;;4167023;28;20041;-68
2021/11/26 08:22:56;;;;;;;19.67;10.10;;;5.80;99.90;;;;;;4167104;28;20029;-68
2021/11/26 08:24:57;;;;;;;27.67;12.13;;;5.80;99.90;;;;;;4167476;28;20064;-67
2021/11/26 08:26:58;;;;;;;21.15;9.77;;;5.80;99.90;;;;;;4166598;28;20030;-68
2021/11/26 08:29:01;;;;;;;19.65;10.80;;;5.90;99.90;;;;;;4167482;28;20037;-68
2021/11/26 08:31:02;;;;;;;24.17;11.73;;;5.90;99.90;;;;;;4166720;28;20083;-68
2021/11/26 08:33:03;;;;;;;17.70;9.75;;;5.80;99.90;;;;;;4167272;28;20038;-68
2021/11/26 08:35:04;;;;;;;21.90;10.13;;;5.80;99.90;;;;;;4167531;28;20468;-68
2021/11/26 08:37:05;;;;;;;23.58;10.02;;;5.90;99.90;;;;;;4167826;28;20026;-68
2021/11/26 08:39:08;;;;;;;17.77;9.68;;;5.90;99.90;;;;;;4167801;28;20041;-68
2021/11/26 08:41:08;;;;;;;19.98;9.00;;;5.90;99.90;;;;;;4167714;28;20080;-68
2021/11/26 08:43:10;;;;;;;21.88;9.10;;;5.80;99.90;;;;;;4168012;28;20476;-67
2021/11/26 08:45:12;;;;;;;19.85;8.15;;;5.80;99.90;;;;;;4166969;28;20025;-68
2021/11/26 08:47:12;;;;;;;21.25;8.55;;;5.90;99.90;;;;;;4167735;28;20026;-68
2021/11/26 08:49:13;;;;;;;17.83;7.93;;;5.80;99.90;;;;;;4167354;28;20040;-68
2021/11/26 08:51:14;;;;;;;19.23;7.72;;;5.90;99.90;;;;;;4166171;28;20103;-68
2021/11/26 08:53:17;;;;;;;24.77;7.43;;;5.90;99.90;;;;;;4167344;28;20041;-68
2021/11/26 08:55:19;;;;;;;20.75;7.72;;;5.90;99.90;;;;;;4166912;28;20075;-68
2021/11/26 08:57:25;;;;;;;17.23;6.93;;;5.80;99.90;;;;;;4167731;28;20119;-68
2021/11/26 08:59:27;;;;;;;18.88;8.23;;;5.80;99.90;;;;;;4166961;28;20112;-68
2021/11/26 09:01:32;;;;;;;16.85;6.78;;;5.80;99.90;;;;;;4166924;28;20033;-68
2021/11/26 09:03:33;;;;;;;16.95;6.63;;;5.80;99.90;;;;;;4167621;28;20057;-68
2021/11/26 09:05:35;;;;;;;15.38;6.55;;;5.80;99.90;;;;;;4167214;28;20026;-68
2021/11/26 09:07:35;;;;;;;22.65;7.28;;;5.80;99.90;;;;;;4167798;28;20025;-68
2021/11/26 09:09:36;;;;;;;14.73;5.95;;;5.80;99.90;;;;;;4167176;28;20091;-68
2021/11/26 09:11:36;;;;;;;18.92;6.53;;;5.80;99.90;;;;;;4167261;28;20357;-68
2021/11/26 09:13:38;;;;;;;15.93;5.93;;;5.80;99.90;;;;;;4167303;28;20112;-68
2021/11/26 09:15:39;;;;;;;18.73;6.72;;;5.80;99.90;;;;;;4166733;28;20032;-68
2021/11/26 09:17:40;;;;;;;22.92;6.88;;;5.80;99.90;;;;;;4167306;28;20025;-68
2021/11/26 09:19:41;;;;;;;15.25;5.85;;;5.80;99.90;;;;;;4166514;28;20033;-67
2021/11/26 09:21:41;;;;;;;17.40;5.88;;;5.80;99.90;;;;;;4166179;28;20032;-68
2021/11/26 09:23:42;;;;;;;17.92;6.30;;;5.70;99.90;;;;;;4166627;28;20105;-68
2021/11/26 09:25:43;;;;;;;16.40;5.70;;;5.70;99.90;;;;;;4166480;28;20025;-68
2021/11/26 09:27:44;;;;;;;14.32;6.03;;;5.80;99.90;;;;;;4168413;28;20536;-67
2021/11/26 09:29:46;;;;;;;17.67;6.25;;;5.80;99.90;;;;;;4171008;28;20068;-67
2021/11/26 09:31:46;;;;;;;14.20;6.28;;;5.80;99.90;;;;;;4170872;28;20476;-68
2021/11/26 09:33:49;;;;;;;15.88;6.07;;;5.80;99.90;;;;;;4171943;28;20025;-67
2021/11/26 09:35:50;;;;;;;;;;;5.80;99.90;;;;;;4171750;28;20060;-68
2021/11/26 09:37:51;;;;;;;;;;;5.70;99.90;;;;;;4172046;28;20271;-68
2021/11/26 09:39:53;;;;;;;;;;;5.70;99.90;;;;;;4171960;28;19991;-67
2021/11/26 09:41:54;;;;;;;;;;;5.70;99.90;;;;;;4167857;28;19912;-68
2021/11/26 09:43:56;;;;;;;;;;;5.70;99.90;;;;;;4167406;28;19909;-68
2021/11/26 09:45:57;;;;;;;;;;;5.70;99.90;;;;;;4165398;28;19967;-68
2021/11/26 09:47:57;;;;;;;;;;;5.60;99.90;;;;;;4166933;28;19912;-68
2021/11/26 09:49:59;;;;;;;;;;;5.70;99.90;;;;;;4167219;28;19912;-68
2021/11/26 09:52:00;;;;;;;;;;;5.70;99.90;;;;;;4166930;28;19925;-68
2021/11/26 09:54:00;;;;;;;;;;;5.70;99.90;;;;;;4168161;28;19948;-68
2021/11/26 09:56:03;;;;;;;;;;;5.70;99.90;;;;;;4168494;28;20374;-68
2021/11/26 09:58:04;;;;;;;;;;;5.70;99.90;;;;;;4169006;28;20287;-68
2021/11/26 10:00:06;;;;;;;;;;;5.60;99.90;;;;;;4168709;28;19909;-68
2021/11/26 10:02:11;;;;;;;;;;;5.70;99.90;;;;;;4169710;28;19936;-67
2021/11/26 10:04:19;;;;;;;;;;;5.70;99.90;;;;;;4171170;28;19955;-67
2021/11/26 10:06:19;;;;;;;;;;;5.70;99.90;;;;;;4167500;28;19944;-67
2021/11/26 10:08:23;;;;;;;;;;;5.70;99.90;;;;;;4166656;28;19905;-67
2021/11/26 10:10:25;;;;;;;;;;;5.60;99.90;;;;;;4166587;28;20454;-68
2021/11/26 10:12:26;;;;;;;;;;;5.60;99.90;;;;;;4166439;28;19905;-67
2021/11/26 10:14:34;;;;;;;;;;;5.60;99.90;;;;;;4166638;28;20378;-67
2021/11/26 10:16:41;;;;;;;;;;;5.70;99.90;;;;;;4165067;28;20252;-67
2021/11/26 10:18:46;;;;;;;;;;;5.60;99.90;;;;;;4166628;28;19905;-67
2021/11/26 10:21:11;;;;;;;;;;;5.60;99.90;;;;;;4164136;28;20412;-67
2021/11/26 10:23:19;;;;;;;;;;;5.60;99.90;;;;;;4161060;28;19943;-67
2021/11/26 10:25:21;;;;;;;;;;;5.60;99.90;;;;;;4165061;28;19952;-68
2021/11/26 10:27:32;;;;;;;;;;;5.60;99.90;;;;;;4165738;28;20324;-67
2021/11/26 10:29:34;;;;;;;;;;;5.60;99.90;;;;;;4166094;28;19913;-67
2021/11/26 10:31:36;;;;;;;;;;;5.60;99.90;;;;;;4165819;28;20248;-67
2021/11/26 10:33:37;;;;;;;;;;;5.60;99.90;;;;;;4165737;28;19905;-67